createdAt,value
2023-10-26T00:01:11.773Z,11.35
2023-10-26T00:03:39.121Z,11.34
2023-10-26T00:06:06.113Z,11.31
2023-10-26T00:08:33.134Z,11.28
2023-10-26T00:11:03.677Z,11.23
2023-10-26T00:13:30.922Z,11.20
2023-10-26T00:15:57.982Z,11.18
2023-10-26T00:18:25.388Z,11.17
2023-10-26T00:20:59.686Z,11.16
2023-10-26T00:23:27.430Z,11.16
2023-10-26T00:25:54.691Z,11.18
2023-10-26T00:28:21.757Z,11.19
2023-10-26T00:30:49.813Z,11.19
2023-10-26T00:33:16.837Z,11.20
2023-10-26T00:35:44.223Z,11.21
2023-10-26T00:38:11.996Z,11.22
2023-10-26T00:40:39.863Z,11.23
2023-10-26T00:43:07.230Z,11.22
2023-10-26T00:45:36.018Z,11.22
2023-10-26T00:48:06.101Z,11.21
2023-10-26T00:50:33.083Z,11.19
2023-10-26T00:53:00.038Z,11.17
2023-10-26T00:55:27.496Z,11.16
2023-10-26T00:57:54.653Z,11.16
2023-10-26T01:00:22.035Z,11.16
2023-10-26T01:02:49.651Z,11.16
2023-10-26T01:05:16.772Z,11.16
2023-10-26T01:07:43.684Z,11.15
2023-10-26T01:10:11.302Z,11.16
2023-10-26T01:12:38.635Z,11.16
2023-10-26T01:15:06.698Z,11.16
2023-10-26T01:17:36.028Z,11.16
2023-10-26T01:20:05.362Z,11.16
2023-10-26T01:22:32.779Z,11.17
2023-10-26T01:25:00.021Z,11.17
2023-10-26T01:27:27.317Z,11.18
2023-10-26T01:29:55.886Z,11.18
2023-10-26T01:32:26.712Z,11.18
2023-10-26T01:34:53.969Z,11.19
2023-10-26T01:37:21.230Z,11.20
2023-10-26T01:39:48.905Z,11.20
2023-10-26T01:42:15.731Z,11.21
2023-10-26T01:44:44.639Z,11.22
2023-10-26T01:47:13.868Z,11.24
2023-10-26T01:49:41.406Z,11.25
2023-10-26T01:52:08.558Z,11.28
2023-10-26T01:54:35.961Z,11.31
2023-10-26T01:57:03.811Z,11.34
2023-10-26T01:59:30.906Z,11.37
2023-10-26T02:01:57.749Z,11.40
2023-10-26T02:04:24.842Z,11.41
2023-10-26T02:06:52.022Z,11.41
2023-10-26T02:09:19.169Z,11.42
2023-10-26T02:11:46.416Z,11.43
2023-10-26T02:14:13.825Z,11.44
2023-10-26T02:16:40.826Z,11.44
2023-10-26T02:19:08.314Z,11.44
2023-10-26T02:21:36.159Z,11.44
2023-10-26T02:24:03.699Z,11.45
2023-10-26T02:26:30.878Z,11.44
2023-10-26T02:28:58.138Z,11.44
2023-10-26T02:31:25.192Z,11.44
2023-10-26T02:33:52.131Z,11.46
2023-10-26T02:36:19.444Z,11.48
2023-10-26T02:38:46.426Z,11.49
2023-10-26T02:41:13.515Z,11.49
2023-10-26T02:43:41.100Z,11.49
2023-10-26T02:46:09.984Z,11.50
2023-10-26T02:48:38.190Z,11.52
2023-10-26T02:51:05.696Z,11.52
2023-10-26T02:53:33.180Z,11.52
2023-10-26T02:56:00.355Z,11.53
2023-10-26T02:58:27.496Z,11.53
2023-10-26T03:00:55.159Z,11.54
2023-10-26T03:03:22.924Z,11.56
2023-10-26T03:05:50.073Z,11.58
2023-10-26T03:08:17.745Z,11.61
2023-10-26T03:10:44.924Z,11.63
2023-10-26T03:13:12.574Z,11.62
2023-10-26T03:15:39.741Z,11.62
2023-10-26T03:18:07.679Z,11.62
2023-10-26T03:20:34.967Z,11.63
2023-10-26T03:23:02.126Z,11.65
2023-10-26T03:25:29.399Z,11.66
2023-10-26T03:27:57.557Z,11.67
2023-10-26T03:30:24.755Z,11.69
2023-10-26T03:32:52.443Z,11.70
2023-10-26T03:35:19.742Z,11.70
2023-10-26T03:37:47.005Z,11.68
2023-10-26T03:40:15.386Z,11.69
2023-10-26T03:42:43.162Z,11.69
2023-10-26T03:45:10.952Z,11.68
2023-10-26T03:47:39.059Z,11.69
2023-10-26T03:50:06.679Z,11.70
2023-10-26T03:52:33.734Z,11.71
2023-10-26T03:55:00.895Z,11.72
2023-10-26T03:57:28.185Z,11.72
2023-10-26T03:59:55.301Z,11.73
2023-10-26T04:02:22.451Z,11.72
2023-10-26T04:04:50.928Z,11.70
2023-10-26T04:07:19.300Z,11.67
2023-10-26T04:09:46.774Z,11.64
2023-10-26T04:12:14.091Z,11.61
2023-10-26T04:14:41.383Z,11.61
2023-10-26T04:17:08.331Z,11.62
2023-10-26T04:19:35.383Z,11.63
2023-10-26T04:22:06.222Z,11.63
2023-10-26T04:24:34.209Z,11.60
2023-10-26T04:27:01.431Z,11.57
2023-10-26T04:29:28.524Z,11.55
2023-10-26T04:31:55.745Z,11.54
2023-10-26T04:34:22.737Z,11.53
2023-10-26T04:36:50.099Z,11.51
2023-10-26T04:39:17.115Z,11.52
2023-10-26T04:41:43.994Z,11.51
2023-10-26T04:44:12.532Z,11.51
2023-10-26T04:46:39.645Z,11.48
2023-10-26T04:49:06.496Z,11.51
2023-10-26T04:51:33.714Z,11.53
2023-10-26T04:54:00.960Z,11.55
2023-10-26T04:56:28.267Z,11.56
2023-10-26T04:58:55.288Z,11.59
2023-10-26T05:01:22.609Z,11.61
2023-10-26T05:03:49.677Z,11.63
2023-10-26T05:06:16.764Z,11.65
2023-10-26T05:08:43.828Z,11.68
2023-10-26T05:11:10.738Z,11.71
2023-10-26T05:13:37.728Z,11.73
2023-10-26T05:16:05.039Z,11.73
2023-10-26T05:18:33.321Z,11.73
2023-10-26T05:21:00.318Z,11.73
2023-10-26T05:23:27.182Z,11.72
2023-10-26T05:25:54.020Z,11.73
2023-10-26T05:28:21.166Z,11.73
2023-10-26T05:30:48.118Z,11.74
2023-10-26T05:33:16.052Z,11.73
2023-10-26T05:35:44.538Z,11.75
2023-10-26T05:38:11.505Z,11.74
2023-10-26T05:40:38.268Z,11.74
2023-10-26T05:43:05.160Z,11.74
2023-10-26T05:45:37.723Z,11.73
2023-10-26T05:48:06.123Z,11.72
2023-10-26T05:50:33.033Z,11.73
2023-10-26T05:52:59.898Z,11.74
2023-10-26T05:55:26.703Z,11.75
2023-10-26T05:57:53.476Z,11.78
2023-10-26T06:00:20.654Z,11.79
2023-10-26T06:02:47.825Z,11.82
2023-10-26T06:05:15.037Z,11.84
2023-10-26T06:07:42.026Z,11.86
2023-10-26T06:10:10.520Z,11.88
2023-10-26T06:12:37.696Z,11.89
2023-10-26T06:15:05.125Z,11.92
2023-10-26T06:17:32.270Z,11.95
2023-10-26T06:19:59.258Z,11.98
2023-10-26T06:22:26.346Z,12.02
2023-10-26T06:24:53.370Z,12.07
2023-10-26T06:27:20.706Z,12.11
2023-10-26T06:29:51.713Z,12.15
2023-10-26T06:32:18.864Z,12.17
2023-10-26T06:34:46.326Z,12.20
2023-10-26T06:37:13.284Z,12.24
2023-10-26T06:39:42.030Z,12.27
2023-10-26T06:42:13.472Z,12.29
2023-10-26T06:44:41.880Z,12.32
2023-10-26T06:47:10.806Z,12.35
2023-10-26T06:49:41.475Z,12.36
2023-10-26T06:52:08.609Z,12.38
2023-10-26T06:54:36.125Z,12.40
2023-10-26T06:57:04.983Z,12.43
2023-10-26T06:59:32.822Z,12.45
2023-10-26T07:02:09.209Z,12.48
2023-10-26T07:04:39.132Z,12.49
2023-10-26T07:07:06.487Z,12.50
2023-10-26T07:09:33.391Z,12.53
2023-10-26T07:12:00.323Z,12.55
2023-10-26T07:14:27.717Z,12.60
2023-10-26T07:16:54.622Z,12.63
2023-10-26T07:19:21.734Z,12.64
2023-10-26T07:21:48.899Z,12.67
2023-10-26T07:24:16.043Z,12.70
2023-10-26T07:26:43.101Z,12.70
2023-10-26T07:29:10.374Z,12.73
2023-10-26T07:31:37.567Z,12.73
2023-10-26T07:34:06.617Z,12.71
2023-10-26T07:36:34.781Z,12.72
2023-10-26T07:39:45.541Z,12.74
2023-10-26T07:42:06.519Z,12.74
2023-10-26T07:44:36.176Z,12.73
2023-10-26T07:47:03.699Z,12.73
2023-10-26T07:49:31.912Z,12.74
2023-10-26T07:51:58.971Z,12.76
2023-10-26T07:54:26.080Z,12.78
2023-10-26T07:56:53.181Z,12.78
2023-10-26T07:59:20.436Z,12.79
2023-10-26T08:01:48.472Z,12.80
2023-10-26T08:04:15.406Z,12.82
2023-10-26T08:06:42.485Z,12.84
2023-10-26T08:09:09.625Z,12.88
2023-10-26T08:11:36.755Z,12.91
2023-10-26T08:14:03.846Z,12.94
2023-10-26T08:16:51.253Z,12.97
2023-10-26T08:19:18.341Z,13.00
2023-10-26T08:21:45.372Z,13.02
2023-10-26T08:24:12.402Z,13.04
2023-10-26T08:26:39.530Z,13.06
2023-10-26T08:29:16.031Z,13.10
2023-10-26T08:31:45.891Z,13.14
2023-10-26T08:34:12.959Z,13.16
2023-10-26T08:36:42.172Z,13.19
2023-10-26T08:39:13.099Z,13.20
2023-10-26T08:41:43.425Z,13.21
2023-10-26T08:44:10.696Z,13.20
2023-10-26T08:46:38.543Z,13.21
2023-10-26T08:49:07.395Z,13.20
2023-10-26T08:51:34.713Z,13.20
2023-10-26T08:54:01.763Z,13.21
2023-10-26T08:56:29.203Z,13.23
2023-10-26T08:59:01.229Z,13.25
2023-10-26T09:01:33.043Z,13.28
2023-10-26T09:04:07.532Z,13.34
2023-10-26T09:06:47.635Z,13.41
2023-10-26T09:09:15.503Z,13.48
2023-10-26T09:11:45.214Z,13.53
2023-10-26T09:14:16.978Z,13.57
2023-10-26T09:16:45.825Z,13.61
2023-10-26T09:19:13.743Z,13.67
2023-10-26T09:21:52.970Z,13.69
2023-10-26T09:24:27.535Z,13.72
2023-10-26T09:26:55.492Z,13.76
2023-10-26T09:29:34.932Z,13.80
2023-10-26T09:32:01.905Z,13.84
2023-10-26T09:34:29.018Z,13.87
2023-10-26T09:36:59.875Z,13.89
2023-10-26T09:39:31.725Z,13.93
2023-10-26T09:42:00.618Z,13.97
2023-10-26T09:44:28.227Z,14.02
2023-10-26T09:46:55.892Z,14.04
2023-10-26T09:49:26.860Z,14.03
2023-10-26T09:51:54.153Z,14.00
2023-10-26T09:54:23.655Z,13.96
2023-10-26T09:57:09.644Z,13.94
2023-10-26T09:59:37.722Z,13.89
2023-10-26T10:02:22.578Z,13.85
2023-10-26T10:04:58.861Z,13.82
2023-10-26T10:07:42.445Z,13.82
2023-10-26T10:10:10.196Z,13.83
2023-10-26T10:12:38.889Z,13.84
2023-10-26T10:15:36.068Z,13.90
2023-10-26T10:17:57.261Z,13.99
2023-10-26T10:20:24.065Z,14.07
2023-10-26T10:22:53.144Z,14.12
2023-10-26T10:25:20.328Z,14.15
2023-10-26T10:27:50.381Z,14.18
2023-10-26T10:30:23.912Z,14.20
2023-10-26T10:32:52.547Z,14.22
2023-10-26T10:35:22.754Z,14.27
2023-10-26T10:38:09.722Z,14.32
2023-10-26T10:40:39.006Z,14.34
2023-10-26T10:43:06.433Z,14.33
2023-10-26T10:45:33.320Z,14.34
2023-10-26T10:48:05.199Z,14.35
2023-10-26T10:50:32.241Z,14.36
2023-10-26T10:52:59.214Z,14.36
2023-10-26T10:55:30.236Z,14.35
2023-10-26T10:58:01.448Z,14.34
2023-10-26T11:00:51.400Z,14.35
2023-10-26T11:03:19.161Z,14.37
2023-10-26T11:05:46.723Z,14.39
2023-10-26T11:08:14.233Z,14.40
2023-10-26T11:10:41.571Z,14.38
2023-10-26T11:13:08.450Z,14.38
2023-10-26T11:15:36.649Z,14.38
2023-10-26T11:18:04.726Z,14.39
2023-10-26T11:20:35.457Z,14.38
2023-10-26T11:23:02.325Z,14.36
2023-10-26T11:25:29.176Z,14.32
2023-10-26T11:27:56.316Z,14.28
2023-10-26T11:30:23.468Z,14.26
2023-10-26T11:32:50.482Z,14.26
2023-10-26T11:35:17.610Z,14.27
2023-10-26T11:37:46.515Z,14.29
2023-10-26T11:40:14.994Z,14.30
2023-10-26T11:42:52.353Z,14.32
2023-10-26T11:45:21.194Z,14.35
2023-10-26T11:47:51.008Z,14.35
2023-10-26T11:50:18.672Z,14.37
2023-10-26T11:52:45.470Z,14.39
2023-10-26T11:55:14.951Z,14.39
2023-10-26T11:57:41.984Z,14.37
2023-10-26T12:00:12.629Z,14.35
2023-10-26T12:02:44.579Z,14.34
2023-10-26T12:05:17.193Z,14.35
2023-10-26T12:07:47.998Z,14.36
2023-10-26T12:10:15.949Z,14.36
2023-10-26T12:12:43.770Z,14.37
2023-10-26T12:15:11.519Z,14.38
2023-10-26T12:17:38.582Z,14.37
2023-10-26T12:20:06.219Z,14.35
2023-10-26T12:22:33.282Z,14.33
2023-10-26T12:25:04.809Z,14.32
2023-10-26T12:27:32.009Z,14.32
2023-10-26T12:30:18.900Z,14.32
2023-10-26T12:32:46.059Z,14.33
2023-10-26T12:35:13.233Z,14.33
2023-10-26T12:37:40.198Z,14.31
2023-10-26T12:40:10.104Z,14.31
2023-10-26T12:42:37.118Z,14.32
2023-10-26T12:45:05.199Z,14.33
2023-10-26T12:47:32.027Z,14.35
2023-10-26T12:49:59.016Z,14.39
2023-10-26T12:52:26.262Z,14.39
2023-10-26T12:54:53.448Z,14.40
2023-10-26T12:57:20.573Z,14.40
2023-10-26T12:59:47.836Z,14.38
2023-10-26T13:02:14.691Z,14.34
2023-10-26T13:04:41.526Z,14.31
2023-10-26T13:07:08.394Z,14.30
2023-10-26T13:09:36.265Z,14.29
2023-10-26T13:12:03.790Z,14.24
2023-10-26T13:14:30.536Z,14.21
2023-10-26T13:16:58.716Z,14.18
2023-10-26T13:19:28.046Z,14.18
2023-10-26T13:21:55.079Z,14.17
2023-10-26T13:24:21.905Z,14.17
2023-10-26T13:26:48.767Z,14.18
2023-10-26T13:29:15.523Z,14.21
2023-10-26T13:31:42.278Z,14.25
2023-10-26T13:34:09.302Z,14.28
2023-10-26T13:36:36.307Z,14.29
2023-10-26T13:39:04.911Z,14.31
2023-10-26T13:41:31.934Z,14.33
2023-10-26T13:43:59.970Z,14.32
2023-10-26T13:46:28.728Z,14.33
2023-10-26T13:48:55.599Z,14.33
2023-10-26T13:51:22.597Z,14.31
2023-10-26T13:53:49.901Z,14.33
2023-10-26T13:56:16.736Z,14.34
2023-10-26T13:58:43.797Z,14.34
2023-10-26T14:01:12.359Z,14.35
2023-10-26T14:03:39.288Z,14.34
2023-10-26T14:06:08.093Z,14.32
2023-10-26T14:08:35.051Z,14.31
2023-10-26T14:11:01.934Z,14.32
2023-10-26T14:13:29.468Z,14.32
2023-10-26T14:15:56.680Z,14.27
2023-10-26T14:18:23.626Z,14.23
2023-10-26T14:20:51.604Z,14.20
2023-10-26T14:23:18.699Z,14.17
2023-10-26T14:25:45.549Z,14.13
2023-10-26T14:28:12.608Z,14.08
2023-10-26T14:30:39.565Z,14.03
2023-10-26T14:33:06.634Z,13.99
2023-10-26T14:35:33.569Z,13.96
2023-10-26T14:38:01.871Z,13.90
2023-10-26T14:40:30.087Z,13.87
2023-10-26T14:42:57.830Z,13.83
2023-10-26T14:45:25.973Z,13.81
2023-10-26T14:47:53.154Z,13.79
2023-10-26T14:50:20.181Z,13.77
2023-10-26T14:52:47.240Z,13.76
2023-10-26T14:55:14.536Z,13.74
2023-10-26T14:57:41.793Z,13.73
2023-10-26T15:00:09.118Z,13.72
2023-10-26T15:02:36.139Z,13.72
2023-10-26T15:05:04.555Z,13.73
2023-10-26T15:07:31.614Z,13.73
2023-10-26T15:10:24.848Z,13.73
2023-10-26T15:12:45.750Z,13.75
2023-10-26T15:15:13.025Z,13.77
2023-10-26T15:17:40.297Z,13.76
2023-10-26T15:20:07.962Z,13.75
2023-10-26T15:22:35.113Z,13.75
2023-10-26T15:25:01.991Z,13.74
2023-10-26T15:27:29.120Z,13.72
2023-10-26T15:29:56.207Z,13.72
2023-10-26T15:32:23.381Z,13.73
2023-10-26T15:34:50.452Z,13.74
2023-10-26T15:37:19.380Z,13.77
2023-10-26T15:39:47.369Z,13.78
2023-10-26T15:42:15.325Z,13.80
2023-10-26T15:44:44.533Z,13.81
2023-10-26T15:47:15.990Z,13.82
2023-10-26T15:49:47.659Z,13.81
2023-10-26T15:52:18.080Z,13.80
2023-10-26T15:54:45.141Z,13.78
2023-10-26T15:57:12.398Z,13.78
2023-10-26T15:59:39.749Z,13.75
2023-10-26T16:02:07.420Z,13.73
2023-10-26T16:04:35.089Z,13.72
2023-10-26T16:07:02.133Z,13.71
2023-10-26T16:09:30.220Z,13.68
2023-10-26T16:11:57.479Z,13.67
2023-10-26T16:14:24.839Z,13.66
2023-10-26T16:16:54.883Z,13.66
2023-10-26T16:19:23.034Z,13.66
2023-10-26T16:21:50.254Z,13.65
2023-10-26T16:24:18.682Z,13.63
2023-10-26T16:26:45.945Z,13.63
2023-10-26T16:29:13.098Z,13.62
2023-10-26T16:31:40.221Z,13.59
2023-10-26T16:34:07.583Z,13.56
2023-10-26T16:36:34.738Z,13.56
2023-10-26T16:39:01.814Z,13.54
2023-10-26T16:41:28.892Z,13.51
2023-10-26T16:43:55.910Z,13.49
2023-10-26T16:46:23.048Z,13.43
2023-10-26T16:48:50.327Z,13.37
2023-10-26T16:51:18.403Z,13.30
2023-10-26T16:53:45.660Z,13.26
2023-10-26T16:56:12.627Z,13.19
2023-10-26T16:58:39.769Z,13.12
2023-10-26T17:01:08.944Z,13.10
2023-10-26T17:03:35.956Z,13.07
2023-10-26T17:06:04.555Z,13.04
2023-10-26T17:08:31.975Z,13.00
2023-10-26T17:11:01.682Z,12.97
2023-10-26T17:13:28.832Z,12.94
2023-10-26T17:15:56.353Z,12.91
2023-10-26T17:18:23.753Z,12.89
2023-10-26T17:20:52.556Z,12.87
2023-10-26T17:23:19.605Z,12.86
2023-10-26T17:25:46.720Z,12.85
2023-10-26T17:28:15.079Z,12.81
2023-10-26T17:30:42.043Z,12.78
2023-10-26T17:33:14.706Z,12.74
2023-10-26T17:35:51.953Z,12.68
2023-10-26T17:38:19.320Z,12.63
2023-10-26T17:40:48.519Z,12.60
2023-10-26T17:43:15.527Z,12.58
2023-10-26T17:45:44.503Z,12.58
2023-10-26T17:48:11.677Z,12.57
2023-10-26T17:50:42.375Z,12.56
2023-10-26T17:53:09.529Z,12.55
2023-10-26T17:55:44.259Z,12.53
2023-10-26T17:58:12.160Z,12.53
2023-10-26T18:00:39.604Z,12.54
2023-10-26T18:03:06.819Z,12.54
2023-10-26T18:05:34.015Z,12.57
2023-10-26T18:08:03.625Z,12.59
2023-10-26T18:10:30.778Z,12.61
2023-10-26T18:12:58.219Z,12.61
2023-10-26T18:15:25.301Z,12.64
2023-10-26T18:17:52.752Z,12.65
2023-10-26T18:20:22.783Z,12.66
2023-10-26T18:22:50.348Z,12.67
2023-10-26T18:25:28.561Z,12.69
2023-10-26T18:27:57.143Z,12.70
2023-10-26T18:30:24.190Z,12.70
2023-10-26T18:32:53.894Z,12.70
2023-10-26T18:35:23.204Z,12.70
2023-10-26T18:37:51.180Z,12.70
2023-10-26T18:40:21.471Z,12.69
2023-10-26T18:42:50.348Z,12.68
2023-10-26T18:45:17.863Z,12.68
2023-10-26T18:47:47.286Z,12.69
2023-10-26T18:50:14.317Z,12.70
2023-10-26T18:52:43.456Z,12.69
2023-10-26T18:55:13.898Z,12.70
2023-10-26T18:57:41.106Z,12.70
2023-10-26T19:00:09.585Z,12.71
2023-10-26T19:02:36.761Z,12.73
2023-10-26T19:05:05.756Z,12.73
2023-10-26T19:07:32.965Z,12.74
2023-10-26T19:10:02.062Z,12.76
2023-10-26T19:12:29.062Z,12.77
2023-10-26T19:14:57.166Z,12.78
2023-10-26T19:17:24.309Z,12.79
2023-10-26T19:19:51.149Z,12.79
2023-10-26T19:22:18.208Z,12.80
2023-10-26T19:24:46.503Z,12.80
2023-10-26T19:27:16.502Z,12.81
2023-10-26T19:29:44.036Z,12.81
2023-10-26T19:32:13.530Z,12.81
2023-10-26T19:34:40.632Z,12.82
2023-10-26T19:37:08.041Z,12.81
2023-10-26T19:39:35.039Z,12.81
2023-10-26T19:42:02.090Z,12.80
2023-10-26T19:44:29.142Z,12.79
2023-10-26T19:46:56.263Z,12.77
2023-10-26T19:49:23.687Z,12.76
2023-10-26T19:51:50.788Z,12.75
2023-10-26T19:54:19.400Z,12.74
2023-10-26T19:56:46.449Z,12.72
2023-10-26T19:59:13.922Z,12.71
2023-10-26T20:01:40.936Z,12.70
2023-10-26T20:04:08.279Z,12.70
2023-10-26T20:06:35.490Z,12.69
2023-10-26T20:09:03.250Z,12.69
2023-10-26T20:11:30.203Z,12.69
2023-10-26T20:13:57.153Z,12.69
2023-10-26T20:16:24.085Z,12.69
2023-10-26T20:18:51.103Z,12.69
2023-10-26T20:21:18.232Z,12.69
2023-10-26T20:23:45.361Z,12.70
2023-10-26T20:26:12.311Z,12.69
2023-10-26T20:28:39.463Z,12.69
2023-10-26T20:31:06.977Z,12.68
2023-10-26T20:33:34.417Z,12.67
2023-10-26T20:36:01.563Z,12.66
2023-10-26T20:38:28.608Z,12.65
2023-10-26T20:40:55.454Z,12.64
2023-10-26T20:43:22.366Z,12.63
2023-10-26T20:45:58.880Z,12.62
2023-10-26T20:48:26.447Z,12.60
2023-10-26T20:50:54.592Z,12.58
2023-10-26T20:53:22.796Z,12.56
2023-10-26T20:55:57.216Z,12.55
2023-10-26T20:58:24.269Z,12.55
2023-10-26T21:00:51.339Z,12.56
2023-10-26T21:03:18.282Z,12.57
2023-10-26T21:05:45.185Z,12.57
2023-10-26T21:08:13.113Z,12.54
2023-10-26T21:10:40.331Z,12.52
2023-10-26T21:13:07.289Z,12.49
2023-10-26T21:15:35.973Z,12.46
2023-10-26T21:18:03.326Z,12.43
2023-10-26T21:20:30.437Z,12.38
2023-10-26T21:22:57.592Z,12.36
2023-10-26T21:25:25.363Z,12.32
2023-10-26T21:27:52.732Z,12.29
2023-10-26T21:30:19.665Z,12.27
2023-10-26T21:32:46.751Z,12.24
2023-10-26T21:35:14.080Z,12.21
2023-10-26T21:37:41.238Z,12.20
2023-10-26T21:40:08.780Z,12.18
2023-10-26T21:42:36.367Z,12.16
2023-10-26T21:45:04.547Z,12.14
2023-10-26T21:47:31.623Z,12.12
2023-10-26T21:49:58.585Z,12.10
2023-10-26T21:52:25.602Z,12.06
2023-10-26T21:54:52.565Z,12.01
2023-10-26T21:57:19.708Z,11.98
2023-10-26T21:59:46.845Z,11.94
2023-10-26T22:02:15.352Z,11.93
2023-10-26T22:04:48.568Z,11.88
2023-10-26T22:07:15.826Z,11.84
2023-10-26T22:09:54.449Z,11.80
2023-10-26T22:12:22.698Z,11.76
2023-10-26T22:14:49.750Z,11.74
2023-10-26T22:17:17.031Z,11.73
2023-10-26T22:19:44.376Z,11.72
2023-10-26T22:22:11.767Z,11.72
2023-10-26T22:24:38.574Z,11.71
2023-10-26T22:27:05.418Z,11.73
2023-10-26T22:29:32.578Z,11.75
2023-10-26T22:31:59.429Z,11.76
2023-10-26T22:34:26.754Z,11.75
2023-10-26T22:36:54.378Z,11.76
2023-10-26T22:39:22.121Z,11.76
2023-10-26T22:41:49.270Z,11.78
2023-10-26T22:44:16.225Z,11.80
2023-10-26T22:46:43.196Z,11.83
2023-10-26T22:49:10.779Z,11.84
2023-10-26T22:51:37.946Z,11.86
2023-10-26T22:54:05.152Z,11.88
2023-10-26T22:56:32.012Z,11.90
2023-10-26T22:58:58.950Z,11.91
2023-10-26T23:01:25.958Z,11.95
2023-10-26T23:03:53.237Z,11.97
2023-10-26T23:06:22.064Z,12.00
2023-10-26T23:08:49.114Z,12.02
2023-10-26T23:11:15.958Z,12.04
2023-10-26T23:13:43.016Z,12.06
2023-10-26T23:16:10.103Z,12.09
2023-10-26T23:18:37.160Z,12.10
2023-10-26T23:21:04.486Z,12.12
2023-10-26T23:23:31.641Z,12.15
2023-10-26T23:25:58.905Z,12.17
2023-10-26T23:28:26.098Z,12.18
2023-10-26T23:30:53.163Z,12.19
2023-10-26T23:33:20.260Z,12.18
2023-10-26T23:35:47.220Z,12.17
2023-10-26T23:38:14.062Z,12.15
2023-10-26T23:40:41.222Z,12.16
2023-10-26T23:43:08.207Z,12.17
2023-10-26T23:45:35.433Z,12.18
2023-10-26T23:48:02.564Z,12.20
2023-10-26T23:50:29.639Z,12.20
2023-10-26T23:52:56.644Z,12.20
2023-10-26T23:55:23.774Z,12.20
2023-10-26T23:57:50.734Z,12.19
